Time;durP1;ratioP1;P1;durP2;ratioP2;P2;SDS_P1;SDS_P2;PMS_P1;PMS_P2;Temp;Humidity;BMP_temperature;BMP_pressure;BME280_temperature;BME280_humidity;BME280_pressure;Samples;Min_cycle;Max_cycle;Signal;HPM_P1;HPM_P2
2022/03/07 00:01:40;;;;;;;2.60;2.03;;;10.90;50.80;;;;;;5098208;28;20175;-74
2022/03/07 00:04:06;;;;;;;2.33;1.90;;;10.90;51.20;;;;;;5098342;28;20187;-75
2022/03/07 00:06:45;;;;;;;2.03;1.80;;;10.90;50.90;;;;;;5098827;28;20221;-74
2022/03/07 00:09:11;;;;;;;2.07;1.87;;;10.90;50.80;;;;;;5097950;28;20187;-75
2022/03/07 00:11:37;;;;;;;2.40;2.20;;;10.80;50.80;;;;;;5098179;28;20530;-75
2022/03/07 00:14:03;;;;;;;2.10;1.90;;;10.80;50.80;;;;;;5096905;28;20176;-75
2022/03/07 00:16:31;;;;;;;1.90;1.80;;;10.80;50.80;;;;;;5097294;28;20171;-74
2022/03/07 00:18:57;;;;;;;1.87;1.70;;;10.80;50.90;;;;;;5097173;28;20208;-74
2022/03/07 00:21:23;;;;;;;1.90;1.57;;;10.80;50.90;;;;;;5098229;28;20183;-74
2022/03/07 00:23:48;;;;;;;2.23;1.90;;;10.80;50.90;;;;;;5097989;28;20194;-75
2022/03/07 00:26:14;;;;;;;2.13;1.93;;;10.80;50.90;;;;;;5097465;28;20219;-74
2022/03/07 00:28:40;;;;;;;2.07;1.87;;;10.80;50.90;;;;;;5097605;28;20244;-74
2022/03/07 00:31:06;;;;;;;1.90;1.70;;;10.80;50.90;;;;;;5097321;28;20210;-74
2022/03/07 00:33:34;;;;;;;2.20;1.93;;;10.80;50.90;;;;;;5098132;28;20451;-74
2022/03/07 00:36:14;;;;;;;2.00;1.80;;;10.80;50.90;;;;;;5096720;28;20212;-74
2022/03/07 00:38:39;;;;;;;1.87;1.70;;;10.80;50.80;;;;;;5097458;28;20460;-75
2022/03/07 00:41:07;;;;;;;2.23;1.70;;;10.80;50.90;;;;;;5097224;28;20652;-75
2022/03/07 00:43:32;;;;;;;2.00;1.80;;;10.80;50.80;;;;;;5096973;28;20175;-74
2022/03/07 00:46:01;;;;;;;2.87;1.90;;;10.80;51.00;;;;;;5097816;28;20194;-75
2022/03/07 00:48:27;;;;;;;2.30;2.10;;;10.70;50.90;;;;;;5097914;28;20169;-75
2022/03/07 00:50:53;;;;;;;2.10;1.90;;;10.80;50.90;;;;;;5098254;28;20162;-75
2022/03/07 00:53:22;;;;;;;2.20;1.77;;;10.70;50.90;;;;;;5097189;28;20228;-75
2022/03/07 00:55:52;;;;;;;1.97;1.70;;;10.80;50.90;;;;;;5097909;28;20159;-74
2022/03/07 00:58:17;;;;;;;2.20;1.80;;;10.80;51.00;;;;;;5097135;28;20186;-75
2022/03/07 01:00:44;;;;;;;3.00;1.97;;;10.80;50.90;;;;;;5097204;28;20172;-75
2022/03/07 01:03:12;;;;;;;2.10;1.90;;;10.70;51.30;;;;;;5096375;28;20175;-75
2022/03/07 01:05:50;;;;;;;2.03;1.80;;;10.70;50.90;;;;;;5096918;28;20199;-75
2022/03/07 01:08:16;;;;;;;2.20;2.00;;;10.70;51.00;;;;;;5097209;28;20175;-74
2022/03/07 01:10:42;;;;;;;1.87;1.73;;;10.70;51.00;;;;;;5097494;28;20173;-75
2022/03/07 01:13:08;;;;;;;2.67;1.90;;;10.70;51.00;;;;;;5096465;28;20164;-75
2022/03/07 01:15:40;;;;;;;2.17;1.97;;;10.70;51.00;;;;;;5096963;28;20449;-75
2022/03/07 01:18:06;;;;;;;2.10;1.90;;;10.70;51.00;;;;;;5096875;28;20706;-75
2022/03/07 01:20:32;;;;;;;2.20;1.80;;;10.70;51.00;;;;;;5098955;28;20183;-74
2022/03/07 01:22:58;;;;;;;2.37;2.00;;;10.70;51.10;;;;;;5100985;28;20208;-75
2022/03/07 01:25:30;;;;;;;1.97;1.77;;;10.70;51.10;;;;;;5100144;28;20562;-75
2022/03/07 01:27:56;;;;;;;1.93;1.73;;;10.70;51.10;;;;;;5101482;28;20181;-75
2022/03/07 01:30:22;;;;;;;2.10;1.90;;;10.70;51.10;;;;;;5101171;28;20522;-74
2022/03/07 01:32:48;;;;;;;2.13;1.93;;;10.70;51.10;;;;;;5101296;28;20167;-75
2022/03/07 01:35:33;;;;;;;2.30;1.97;;;10.70;51.10;;;;;;5100738;28;20171;-74
2022/03/07 01:37:58;;;;;;;2.60;1.97;;;10.70;51.10;;;;;;5101026;28;20197;-74
2022/03/07 01:40:24;;;;;;;2.80;2.07;;;10.70;51.10;;;;;;5101624;28;20183;-75
2022/03/07 01:42:50;;;;;;;2.47;1.87;;;10.70;51.10;;;;;;5101521;28;20410;-74
2022/03/07 01:45:22;;;;;;;2.07;1.90;;;10.70;51.10;;;;;;5100075;28;20259;-75
2022/03/07 01:47:48;;;;;;;2.20;1.83;;;10.70;51.10;;;;;;5100156;28;20186;-75
2022/03/07 01:50:16;;;;;;;2.17;1.90;;;10.70;51.20;;;;;;5100751;28;20171;-74
2022/03/07 01:52:44;;;;;;;2.60;2.03;;;10.70;51.10;;;;;;5109101;27;20182;-75
2022/03/07 01:55:20;;;;;;;2.20;1.90;;;10.70;51.20;;;;;;5100499;28;20572;-74
2022/03/07 01:57:47;;;;;;;2.07;1.87;;;10.70;51.20;;;;;;5101983;28;20504;-74
2022/03/07 02:00:16;;;;;;;2.23;1.90;;;10.70;51.30;;;;;;5101408;28;20308;-74
2022/03/07 02:02:43;;;;;;;1.90;1.70;;;10.70;51.20;;;;;;5101158;28;20178;-75
2022/03/07 02:05:10;;;;;;;2.20;2.00;;;10.70;51.20;;;;;;5099812;28;20219;-74
2022/03/07 02:07:37;;;;;;;2.23;2.00;;;10.60;51.10;;;;;;5099808;28;20194;-75
2022/03/07 02:10:04;;;;;;;1.87;1.77;;;10.60;51.60;;;;;;5099732;28;20175;-74
2022/03/07 02:12:30;;;;;;;1.90;1.70;;;10.60;51.20;;;;;;5100096;28;20186;-75
2022/03/07 02:14:56;;;;;;;2.07;1.87;;;10.70;51.20;;;;;;5100036;28;20171;-75
2022/03/07 02:17:22;;;;;;;2.13;1.90;;;10.70;51.20;;;;;;5100051;28;20453;-75
2022/03/07 02:19:48;;;;;;;2.17;1.97;;;10.60;51.20;;;;;;5098916;28;20236;-74
2022/03/07 02:22:16;;;;;;;2.10;1.90;;;10.70;51.20;;;;;;5099705;28;20156;-75
2022/03/07 02:24:43;;;;;;;1.80;1.70;;;10.60;51.20;;;;;;5098946;28;20225;-75
2022/03/07 02:27:10;;;;;;;2.17;1.80;;;10.70;51.20;;;;;;5100065;28;20206;-75
2022/03/07 02:29:37;;;;;;;2.27;2.00;;;10.60;51.10;;;;;;5098622;28;20168;-75
2022/03/07 02:32:04;;;;;;;2.40;2.00;;;10.70;51.20;;;;;;5098344;28;20180;-75
2022/03/07 02:34:30;;;;;;;1.93;1.80;;;10.70;51.30;;;;;;5098724;28;20273;-75
2022/03/07 02:36:56;;;;;;;2.40;1.93;;;10.70;51.30;;;;;;5099633;28;20266;-75
2022/03/07 02:39:22;;;;;;;2.10;1.90;;;10.60;51.20;;;;;;5099514;28;20190;-75
2022/03/07 02:41:55;;;;;;;2.97;1.93;;;10.60;51.20;;;;;;5099722;28;20189;-75
2022/03/07 02:44:21;;;;;;;2.00;1.73;;;10.60;51.20;;;;;;5099480;28;20270;-74
2022/03/07 02:46:46;;;;;;;2.60;2.13;;;10.60;51.20;;;;;;5099696;28;20313;-75
2022/03/07 02:49:12;;;;;;;2.63;2.00;;;10.60;51.20;;;;;;5099513;28;20187;-75
2022/03/07 02:51:38;;;;;;;2.57;1.90;;;10.60;51.20;;;;;;5098834;28;20227;-75
2022/03/07 02:54:04;;;;;;;2.00;1.80;;;10.60;51.20;;;;;;5098990;28;20174;-75
2022/03/07 02:56:30;;;;;;;2.13;1.93;;;10.60;51.20;;;;;;5098514;28;20203;-75
2022/03/07 02:58:55;;;;;;;2.13;1.90;;;10.60;51.20;;;;;;5098687;28;20320;-74
2022/03/07 03:01:23;;;;;;;2.10;1.90;;;10.60;51.20;;;;;;5098730;28;20178;-75
2022/03/07 03:03:49;;;;;;;2.03;1.73;;;10.60;51.30;;;;;;5099531;28;20273;-74
2022/03/07 03:06:15;;;;;;;2.67;2.03;;;10.60;51.20;;;;;;5099087;28;20356;-75
2022/03/07 03:08:40;;;;;;;2.10;1.90;;;10.60;51.20;;;;;;5099016;28;20177;-75
2022/03/07 03:11:08;;;;;;;2.10;1.80;;;10.60;51.20;;;;;;5098647;28;20246;-74
2022/03/07 03:13:33;;;;;;;2.17;1.90;;;10.60;51.20;;;;;;5098990;28;20171;-74
2022/03/07 03:15:59;;;;;;;2.47;2.20;;;10.60;51.20;;;;;;5099374;28;20169;-74
2022/03/07 03:18:25;;;;;;;2.30;2.10;;;10.60;51.10;;;;;;5099052;28;20167;-75
2022/03/07 03:20:58;;;;;;;2.27;2.07;;;10.60;51.10;;;;;;5098969;28;20221;-74
2022/03/07 03:23:24;;;;;;;2.17;1.90;;;10.50;51.00;;;;;;5098645;28;20167;-75
2022/03/07 03:25:50;;;;;;;2.30;2.10;;;10.60;51.10;;;;;;5096080;28;20206;-75
2022/03/07 03:28:16;;;;;;;2.63;2.07;;;10.50;51.10;;;;;;5097483;28;20187;-75
2022/03/07 03:30:52;;;;;;;2.73;2.07;;;10.60;51.10;;;;;;5099156;28;20285;-74
2022/03/07 03:33:17;;;;;;;3.10;2.10;;;10.60;51.10;;;;;;5099688;28;20599;-74
2022/03/07 03:35:43;;;;;;;2.10;1.90;;;10.50;51.00;;;;;;5098966;28;20163;-75
2022/03/07 03:38:09;;;;;;;2.50;2.30;;;10.60;51.10;;;;;;5097817;28;20207;-75
2022/03/07 03:40:35;;;;;;;2.40;2.17;;;10.50;51.00;;;;;;5097388;28;20211;-74
2022/03/07 03:43:01;;;;;;;2.40;2.17;;;10.50;51.10;;;;;;5097784;28;20172;-74
2022/03/07 03:45:26;;;;;;;2.70;2.20;;;10.50;51.10;;;;;;5098238;28;20459;-74
2022/03/07 03:47:52;;;;;;;2.53;2.27;;;10.50;51.10;;;;;;5097997;28;20172;-75
2022/03/07 03:50:25;;;;;;;2.40;1.93;;;10.50;51.10;;;;;;5098498;28;20311;-74
2022/03/07 03:52:50;;;;;;;2.77;2.07;;;10.50;51.10;;;;;;5098612;28;20218;-74
2022/03/07 03:55:17;;;;;;;2.60;2.00;;;10.50;51.00;;;;;;5098451;28;20208;-74
2022/03/07 03:57:43;;;;;;;2.83;2.20;;;10.50;51.10;;;;;;5097807;28;20182;-75
2022/03/07 04:00:12;;;;;;;2.57;2.20;;;10.50;51.00;;;;;;5097921;28;20240;-74
2022/03/07 04:02:39;;;;;;;2.43;2.03;;;10.50;50.90;;;;;;5097373;28;20176;-74
2022/03/07 04:05:05;;;;;;;2.77;2.33;;;10.50;51.00;;;;;;5098016;28;20533;-74
2022/03/07 04:07:30;;;;;;;2.70;2.10;;;10.50;50.90;;;;;;5098679;28;20436;-74
2022/03/07 04:10:19;;;;;;;2.40;2.10;;;10.50;51.00;;;;;;5097827;28;20546;-74
2022/03/07 04:12:45;;;;;;;2.20;2.00;;;10.50;51.00;;;;;;5097779;28;20177;-74
2022/03/07 04:15:11;;;;;;;2.57;2.30;;;10.50;51.10;;;;;;5098766;28;20250;-74
2022/03/07 04:17:39;;;;;;;2.40;2.20;;;10.40;51.00;;;;;;5097110;28;20170;-75
2022/03/07 04:20:08;;;;;;;2.83;2.37;;;10.50;51.00;;;;;;5098129;28;20275;-75
2022/03/07 04:22:36;;;;;;;2.50;2.20;;;10.50;51.10;;;;;;5097293;28;20177;-75
2022/03/07 04:25:03;;;;;;;3.30;2.23;;;10.50;51.10;;;;;;5096880;28;20532;-75
2022/03/07 04:27:28;;;;;;;2.77;2.13;;;10.50;51.20;;;;;;5097467;28;20180;-74
2022/03/07 04:29:55;;;;;;;3.33;2.50;;;10.50;51.20;;;;;;5097562;28;20185;-75
2022/03/07 04:32:21;;;;;;;2.30;2.10;;;10.50;51.20;;;;;;5097704;28;20153;-75
2022/03/07 04:34:47;;;;;;;2.30;2.00;;;10.40;51.20;;;;;;5097164;28;20183;-75
2022/03/07 04:37:13;;;;;;;2.30;2.00;;;10.40;51.20;;;;;;5097332;28;20174;-74
2022/03/07 04:39:43;;;;;;;2.30;2.10;;;10.40;51.20;;;;;;5097159;28;20252;-75
2022/03/07 04:42:08;;;;;;;2.30;2.10;;;10.40;51.30;;;;;;5097639;28;20171;-74
2022/03/07 04:44:34;;;;;;;3.53;2.23;;;10.40;51.20;;;;;;5097262;28;20266;-75
2022/03/07 04:47:00;;;;;;;2.40;2.20;;;10.40;51.30;;;;;;5096139;28;20191;-74
2022/03/07 04:49:26;;;;;;;2.23;2.03;;;10.40;51.40;;;;;;5096955;28;20241;-75
2022/03/07 04:51:58;;;;;;;2.53;2.30;;;10.40;51.30;;;;;;5097080;28;20208;-73
2022/03/07 04:54:24;;;;;;;2.97;2.20;;;10.40;51.30;;;;;;5097255;28;20429;-75
2022/03/07 04:56:51;;;;;;;2.70;2.30;;;10.40;51.30;;;;;;5096960;28;20404;-75
2022/03/07 04:59:17;;;;;;;2.33;1.80;;;10.40;51.40;;;;;;5097807;28;20159;-75
2022/03/07 05:01:43;;;;;;;3.23;1.87;;;10.40;51.70;;;;;;5096857;28;20182;-75
2022/03/07 05:04:09;;;;;;;2.23;2.03;;;10.40;51.40;;;;;;5105028;27;20190;-75
2022/03/07 05:06:35;;;;;;;2.60;2.30;;;10.40;51.40;;;;;;5097123;28;20603;-74
2022/03/07 05:09:01;;;;;;;2.30;2.10;;;10.40;51.30;;;;;;5096776;28;20202;-75
2022/03/07 05:11:27;;;;;;;2.33;1.93;;;10.40;51.30;;;;;;5096387;28;20171;-75
2022/03/07 05:13:59;;;;;;;2.40;2.20;;;10.40;51.30;;;;;;5096773;28;20163;-75
2022/03/07 05:16:25;;;;;;;2.97;2.17;;;10.40;51.70;;;;;;5097015;28;20171;-74
2022/03/07 05:18:50;;;;;;;2.30;2.07;;;10.40;51.70;;;;;;5097252;28;20242;-75
2022/03/07 05:21:16;;;;;;;2.73;2.20;;;10.40;51.40;;;;;;5096494;28;20448;-75
2022/03/07 05:23:43;;;;;;;2.40;2.20;;;10.30;51.30;;;;;;5097510;28;20185;-74
2022/03/07 05:26:08;;;;;;;2.40;2.20;;;10.30;51.30;;;;;;5096388;28;20215;-74
2022/03/07 05:28:35;;;;;;;2.97;2.40;;;10.30;51.30;;;;;;5096817;28;20225;-74
2022/03/07 05:31:01;;;;;;;2.43;2.20;;;10.30;51.30;;;;;;5096379;28;20274;-74
2022/03/07 05:33:32;;;;;;;4.10;1.90;;;10.30;51.30;;;;;;5094925;28;20266;-73
2022/03/07 05:35:58;;;;;;;2.33;2.00;;;10.30;51.30;;;;;;5095357;28;20551;-75
2022/03/07 05:38:23;;;;;;;2.57;2.00;;;10.30;51.30;;;;;;5096186;28;20722;-74
2022/03/07 05:40:49;;;;;;;2.43;2.20;;;10.30;51.30;;;;;;5096676;28;20199;-74
2022/03/07 05:43:15;;;;;;;2.33;2.10;;;10.40;51.40;;;;;;5096563;28;20174;-75
2022/03/07 05:45:40;;;;;;;2.40;2.20;;;10.30;51.30;;;;;;5095966;28;20208;-75
2022/03/07 05:48:06;;;;;;;2.10;1.90;;;10.30;51.40;;;;;;5096049;28;20167;-75
2022/03/07 05:50:32;;;;;;;2.53;2.10;;;10.30;51.30;;;;;;5095797;28;20243;-75
2022/03/07 05:52:58;;;;;;;2.30;2.10;;;10.30;51.40;;;;;;5096993;28;20174;-75
2022/03/07 05:55:23;;;;;;;2.43;2.10;;;10.30;51.40;;;;;;5096120;28;20163;-75
2022/03/07 05:57:49;;;;;;;2.70;2.10;;;10.30;51.40;;;;;;5095664;28;20198;-74
2022/03/07 06:00:16;;;;;;;2.60;2.13;;;10.30;51.30;;;;;;5094465;28;20249;-74
2022/03/07 06:02:42;;;;;;;2.27;2.03;;;10.30;51.40;;;;;;5095433;28;20163;-74
2022/03/07 06:05:08;;;;;;;2.20;2.00;;;10.30;51.30;;;;;;5095427;28;20178;-74
2022/03/07 06:07:35;;;;;;;2.23;2.03;;;10.30;51.40;;;;;;5098379;28;20179;-74
2022/03/07 06:10:01;;;;;;;2.30;2.00;;;10.30;51.40;;;;;;5099388;28;20530;-75
2022/03/07 06:12:27;;;;;;;2.10;1.90;;;10.30;51.40;;;;;;5098606;28;20172;-75
2022/03/07 06:14:53;;;;;;;2.30;2.10;;;10.30;51.40;;;;;;5099232;28;20197;-75
2022/03/07 06:17:19;;;;;;;2.33;1.93;;;10.30;51.50;;;;;;5098129;28;20181;-74
2022/03/07 06:19:44;;;;;;;2.17;1.97;;;10.30;51.50;;;;;;5098126;28;20223;-74
2022/03/07 06:22:17;;;;;;;2.00;1.80;;;10.30;51.50;;;;;;5097714;28;20200;-75
2022/03/07 06:24:42;;;;;;;2.37;2.17;;;10.30;51.50;;;;;;5096775;28;20188;-75
2022/03/07 06:27:09;;;;;;;2.50;1.80;;;10.30;51.50;;;;;;5096546;28;20207;-75
2022/03/07 06:29:35;;;;;;;2.37;2.17;;;10.30;51.50;;;;;;5097567;28;20175;-75
2022/03/07 06:32:00;;;;;;;2.30;1.87;;;10.30;51.60;;;;;;5097088;28;20252;-75
2022/03/07 06:34:26;;;;;;;3.27;1.87;;;10.40;51.70;;;;;;5096690;28;20664;-74
2022/03/07 06:36:55;;;;;;;2.00;1.80;;;10.40;51.80;;;;;;5096987;28;20220;-75
2022/03/07 06:39:26;;;;;;;1.90;1.70;;;10.40;52.00;;;;;;5096601;28;20528;-75
2022/03/07 06:41:52;;;;;;;2.00;1.80;;;10.40;52.00;;;;;;5096310;28;20240;-74
2022/03/07 06:44:18;;;;;;;2.33;2.03;;;10.40;51.90;;;;;;5095476;28;20260;-75
2022/03/07 06:46:45;;;;;;;2.27;2.00;;;10.50;51.90;;;;;;5096357;28;20211;-74
2022/03/07 06:49:11;;;;;;;2.07;1.80;;;10.50;51.80;;;;;;5096605;28;20167;-74
2022/03/07 06:51:37;;;;;;;2.40;2.00;;;10.50;51.80;;;;;;5095869;28;20167;-73
2022/03/07 06:54:03;;;;;;;2.23;1.80;;;10.50;51.70;;;;;;5096222;28;20172;-75
2022/03/07 06:56:31;;;;;;;2.30;1.93;;;10.50;51.70;;;;;;5096987;28;20172;-75
2022/03/07 06:58:57;;;;;;;2.20;1.97;;;10.50;51.60;;;;;;5096158;28;20175;-75
2022/03/07 07:01:23;;;;;;;1.90;1.70;;;10.60;51.70;;;;;;5095664;28;20183;-74
2022/03/07 07:03:49;;;;;;;1.77;1.67;;;10.60;51.60;;;;;;5096510;28;20771;-74
2022/03/07 07:06:16;;;;;;;2.23;1.90;;;10.60;51.50;;;;;;5095942;28;20193;-73
2022/03/07 07:08:41;;;;;;;1.80;1.70;;;10.70;51.40;;;;;;5095994;28;20174;-74
2022/03/07 07:11:07;;;;;;;1.60;1.50;;;10.80;51.30;;;;;;5095940;28;20170;-75
2022/03/07 07:13:33;;;;;;;2.00;1.80;;;10.90;51.10;;;;;;5096938;28;20158;-74
2022/03/07 07:16:00;;;;;;;1.97;1.60;;;11.10;50.90;;;;;;5096347;28;20221;-75
2022/03/07 07:18:26;;;;;;;1.60;1.50;;;11.20;50.70;;;;;;5096125;28;20636;-75
2022/03/07 07:20:52;;;;;;;2.60;1.60;;;11.30;51.00;;;;;;5095623;28;20278;-75
2022/03/07 07:23:19;;;;;;;1.83;1.67;;;11.40;50.40;;;;;;5096919;28;20172;-75
2022/03/07 07:25:49;;;;;;;2.10;1.90;;;11.50;50.20;;;;;;5095654;28;20310;-75
2022/03/07 07:28:14;;;;;;;2.37;1.80;;;11.60;50.00;;;;;;5095419;28;20685;-74
2022/03/07 07:30:40;;;;;;;2.33;1.70;;;11.70;50.20;;;;;;5095167;28;20288;-75
2022/03/07 07:33:06;;;;;;;2.27;1.80;;;11.70;50.20;;;;;;5096082;28;20565;-75
2022/03/07 07:35:34;;;;;;;2.00;1.80;;;11.80;50.30;;;;;;5095285;28;20175;-75
2022/03/07 07:38:00;;;;;;;1.90;1.70;;;11.90;50.30;;;;;;5095161;28;20169;-75
2022/03/07 07:40:27;;;;;;;2.27;1.70;;;12.00;50.40;;;;;;5095700;28;20270;-75
2022/03/07 07:42:52;;;;;;;3.03;1.73;;;12.30;50.40;;;;;;5094957;28;20172;-75
2022/03/07 07:45:18;;;;;;;2.57;2.00;;;12.40;50.00;;;;;;5095524;28;20174;-75
2022/03/07 07:47:44;;;;;;;2.17;1.83;;;12.60;49.80;;;;;;5095052;28;20163;-75
2022/03/07 07:50:11;;;;;;;2.10;1.90;;;12.70;50.00;;;;;;5095450;28;20195;-75
2022/03/07 07:52:37;;;;;;;2.10;1.90;;;12.80;49.60;;;;;;5095730;28;20167;-75
2022/03/07 07:55:07;;;;;;;2.33;1.90;;;12.90;49.70;;;;;;5095789;28;20166;-75
2022/03/07 07:57:32;;;;;;;2.77;1.77;;;13.00;49.40;;;;;;5096695;28;20238;-75
2022/03/07 07:59:59;;;;;;;2.67;1.70;;;13.10;49.40;;;;;;5095147;28;20261;-74
2022/03/07 08:02:25;;;;;;;2.20;1.60;;;13.20;48.80;;;;;;5094426;28;20297;-75
2022/03/07 08:04:52;;;;;;;2.03;1.70;;;13.30;48.80;;;;;;5094318;28;20197;-75
2022/03/07 08:07:18;;;;;;;2.50;1.60;;;13.40;48.50;;;;;;5094232;28;20288;-75
2022/03/07 08:09:45;;;;;;;3.30;1.83;;;13.50;48.60;;;;;;5094983;28;20178;-75
2022/03/07 08:12:11;;;;;;;2.13;1.50;;;13.50;48.30;;;;;;5094671;28;20163;-75
2022/03/07 08:14:39;;;;;;;5.60;1.80;;;13.70;48.10;;;;;;5094261;28;20167;-75
2022/03/07 08:17:06;;;;;;;2.17;1.60;;;13.70;48.00;;;;;;5094638;28;20178;-75
2022/03/07 08:19:34;;;;;;;2.80;1.73;;;13.80;48.10;;;;;;5095088;28;20281;-75
2022/03/07 08:21:59;;;;;;;5.00;1.87;;;13.90;47.80;;;;;;5095090;28;20167;-75
2022/03/07 08:24:25;;;;;;;2.90;1.90;;;14.00;47.80;;;;;;5094857;28;20183;-75
2022/03/07 08:26:51;;;;;;;3.60;1.60;;;14.00;47.60;;;;;;5094021;28;20293;-74
2022/03/07 08:29:18;;;;;;;2.00;1.60;;;14.10;47.50;;;;;;5094274;28;20258;-75
2022/03/07 08:31:44;;;;;;;3.17;1.87;;;14.10;47.20;;;;;;5093731;28;20171;-75
2022/03/07 08:34:10;;;;;;;4.30;1.50;;;14.20;47.20;;;;;;5092777;28;20190;-75
2022/03/07 08:36:36;;;;;;;2.27;1.50;;;14.20;47.00;;;;;;5080737;28;20180;-75
2022/03/07 08:39:02;;;;;;;1.80;1.40;;;14.30;47.30;;;;;;5073278;28;20184;-75
2022/03/07 08:41:28;;;;;;;1.70;1.50;;;14.40;46.80;;;;;;5073991;28;20549;-75
2022/03/07 08:43:55;;;;;;;1.97;1.50;;;14.40;46.80;;;;;;5074619;28;20185;-75
2022/03/07 08:46:21;;;;;;;1.60;1.50;;;14.50;46.70;;;;;;5073981;28;20253;-75
2022/03/07 08:48:46;;;;;;;3.87;1.80;;;14.50;46.30;;;;;;5073775;28;20179;-75
2022/03/07 08:51:12;;;;;;;3.03;1.60;;;14.50;46.00;;;;;;5073558;28;20167;-75
2022/03/07 08:53:38;;;;;;;2.30;1.80;;;14.50;45.80;;;;;;5074709;28;20289;-75
2022/03/07 08:56:04;;;;;;;2.03;1.60;;;14.60;45.60;;;;;;5073167;28;20189;-75
2022/03/07 08:58:30;;;;;;;1.93;1.50;;;14.60;45.30;;;;;;5072973;28;20175;-75
2022/03/07 09:00:56;;;;;;;2.37;1.60;;;14.60;45.10;;;;;;5074023;28;20741;-75
2022/03/07 09:03:22;;;;;;;1.63;1.50;;;14.70;45.10;;;;;;5074116;28;20278;-75
2022/03/07 09:05:47;;;;;;;1.93;1.60;;;14.70;44.90;;;;;;5073941;28;20221;-75
2022/03/07 09:08:13;;;;;;;3.03;1.53;;;14.80;44.80;;;;;;5074983;28;20210;-75
2022/03/07 09:10:39;;;;;;;2.40;1.60;;;14.90;44.90;;;;;;5086115;28;20216;-75
2022/03/07 09:13:05;;;;;;;1.70;1.60;;;14.90;45.10;;;;;;5094127;28;20181;-75
2022/03/07 09:15:31;;;;;;;1.50;1.40;;;14.90;44.60;;;;;;5094315;28;20214;-75
2022/03/07 09:17:57;;;;;;;2.63;1.60;;;14.90;44.60;;;;;;5090816;28;20584;-75
2022/03/07 09:20:23;;;;;;;1.50;1.40;;;15.00;44.60;;;;;;5091340;28;20291;-75
2022/03/07 09:22:48;;;;;;;1.57;1.40;;;15.00;44.60;;;;;;5094489;28;20223;-76
2022/03/07 09:25:15;;;;;;;2.17;1.40;;;15.10;44.50;;;;;;5095083;28;20626;-75
2022/03/07 09:27:42;;;;;;;2.57;1.40;;;15.10;44.50;;;;;;5094168;28;20275;-75
2022/03/07 09:30:09;;;;;;;1.67;1.40;;;15.20;44.40;;;;;;5095170;28;20171;-75
2022/03/07 09:32:43;;;;;;;1.57;1.30;;;15.10;44.50;;;;;;5094321;28;20279;-75
2022/03/07 09:35:09;;;;;;;3.27;1.23;;;14.80;44.60;;;;;;5094006;28;20608;-75
2022/03/07 09:37:35;;;;;;;3.63;1.40;;;14.40;44.90;;;;;;5094885;28;20170;-75
2022/03/07 09:40:05;;;;;;;2.23;1.40;;;14.00;45.20;;;;;;5094395;28;20195;-75
2022/03/07 09:42:31;;;;;;;1.47;1.30;;;13.70;45.60;;;;;;5097967;28;20179;-75
2022/03/07 09:44:56;;;;;;;1.57;1.27;;;13.50;46.00;;;;;;5098332;28;20189;-75
2022/03/07 09:47:23;;;;;;;1.20;1.10;;;13.30;46.20;;;;;;5098950;28;20252;-75
2022/03/07 09:49:52;;;;;;;4.17;1.27;;;13.20;46.50;;;;;;5106366;28;20214;-75
2022/03/07 09:52:18;;;;;;;2.50;1.10;;;13.10;46.80;;;;;;5097535;28;20198;-75
2022/03/07 09:54:43;;;;;;;1.47;1.20;;;13.00;47.30;;;;;;5097347;28;20179;-75
2022/03/07 09:57:21;;;;;;;1.20;1.10;;;13.00;47.20;;;;;;5097466;28;20216;-75
2022/03/07 09:59:46;;;;;;;1.30;1.20;;;13.00;47.40;;;;;;5097116;28;20463;-75
2022/03/07 10:02:14;;;;;;;1.77;1.20;;;13.00;47.50;;;;;;5098331;28;20555;-75
2022/03/07 10:04:42;;;;;;;2.67;1.27;;;13.00;47.60;;;;;;5098083;28;20164;-76
2022/03/07 10:07:09;;;;;;;2.80;1.00;;;13.10;47.80;;;;;;5097349;28;20229;-75
2022/03/07 10:09:35;;;;;;;2.33;1.17;;;13.10;47.90;;;;;;5097218;28;20490;-75
2022/03/07 10:12:02;;;;;;;1.23;1.13;;;13.10;47.80;;;;;;5098828;28;20155;-75
2022/03/07 10:14:42;;;;;;;1.20;1.10;;;13.10;47.70;;;;;;5113361;28;20202;-75
2022/03/07 10:17:21;;;;;;;2.33;1.33;;;13.00;47.50;;;;;;5101147;28;20196;-75
2022/03/07 10:19:49;;;;;;;1.97;1.20;;;12.90;47.30;;;;;;5118129;28;20167;-75
2022/03/07 10:22:19;;;;;;;1.30;1.20;;;12.90;47.50;;;;;;5117497;28;20527;-75
2022/03/07 10:24:45;;;;;;;1.90;1.23;;;12.90;47.50;;;;;;5117104;28;20191;-75
2022/03/07 10:27:23;;;;;;;1.57;1.10;;;13.00;47.60;;;;;;5117481;28;20197;-75
2022/03/07 10:29:49;;;;;;;1.37;1.27;;;13.00;47.50;;;;;;5116177;28;20170;-75
2022/03/07 10:32:17;;;;;;;1.43;1.13;;;12.90;47.60;;;;;;5116755;28;20170;-76
2022/03/07 10:34:43;;;;;;;2.13;1.30;;;12.90;47.50;;;;;;5117036;28;20189;-76
2022/03/07 10:37:08;;;;;;;1.40;1.00;;;12.90;47.60;;;;;;5117717;28;20174;-76
2022/03/07 10:39:34;;;;;;;2.30;1.20;;;12.90;47.60;;;;;;5116601;28;20191;-74
2022/03/07 10:42:00;;;;;;;1.20;1.10;;;12.80;48.00;;;;;;5116408;28;20173;-75
2022/03/07 10:44:32;;;;;;;1.10;0.90;;;12.80;47.60;;;;;;5117863;28;20539;-75
2022/03/07 10:47:16;;;;;;;2.33;1.27;;;12.90;47.80;;;;;;5118296;28;20581;-75
2022/03/07 10:50:03;;;;;;;1.20;1.10;;;12.90;47.80;;;;;;5117972;28;20270;-75
2022/03/07 10:52:39;;;;;;;1.40;1.00;;;12.80;47.80;;;;;;5116741;28;20166;-75
2022/03/07 10:55:08;;;;;;;0.97;0.93;;;12.80;47.80;;;;;;5098561;28;20179;-75
2022/03/07 10:57:40;;;;;;;1.80;1.03;;;12.80;47.80;;;;;;5096540;28;20164;-75
2022/03/07 11:00:12;;;;;;;2.40;0.93;;;12.80;47.90;;;;;;5097166;28;20203;-75
2022/03/07 11:02:43;;;;;;;1.20;0.90;;;12.80;47.90;;;;;;5096265;28;20194;-75
2022/03/07 11:05:10;;;;;;;2.03;1.03;;;12.80;47.90;;;;;;5096514;28;20166;-75
2022/03/07 11:07:42;;;;;;;2.83;1.20;;;12.80;47.90;;;;;;5096221;28;20217;-76
2022/03/07 11:10:10;;;;;;;1.10;1.00;;;12.80;48.00;;;;;;5096959;28;20280;-75
2022/03/07 11:12:37;;;;;;;0.80;0.80;;;12.80;48.00;;;;;;5095964;28;20235;-75
2022/03/07 11:15:12;;;;;;;2.67;1.30;;;12.70;47.90;;;;;;5095598;28;20184;-85
2022/03/07 11:17:43;;;;;;;4.43;1.03;;;12.70;48.50;;;;;;5093163;28;20188;-76
2022/03/07 11:20:13;;;;;;;5.43;1.33;;;13.30;51.30;;;;;;5095080;28;20571;-74
2022/03/07 11:22:39;;;;;;;7.60;1.43;;;14.00;51.20;;;;;;5095658;28;20178;-75
2022/03/07 11:25:16;;;;;;;5.90;1.20;;;14.00;50.30;;;;;;5095388;28;20172;-75
2022/03/07 11:27:43;;;;;;;1.87;1.47;;;13.80;50.00;;;;;;5096872;28;20200;-75
2022/03/07 11:30:23;;;;;;;3.73;1.20;;;13.60;49.90;;;;;;5094806;28;20175;-75
2022/03/07 11:32:52;;;;;;;2.17;0.90;;;13.40;50.00;;;;;;5103740;28;20174;-75
2022/03/07 11:35:30;;;;;;;3.53;1.20;;;13.30;50.10;;;;;;5117065;28;20169;-75
2022/03/07 11:37:56;;;;;;;2.77;1.13;;;13.10;49.80;;;;;;5115581;28;20285;-75
2022/03/07 11:40:23;;;;;;;2.53;1.10;;;13.00;49.60;;;;;;5115472;28;20360;-75
2022/03/07 11:42:50;;;;;;;1.60;1.00;;;13.00;49.50;;;;;;5115668;28;20203;-75
2022/03/07 11:45:19;;;;;;;3.07;1.13;;;13.00;49.50;;;;;;5115339;28;20170;-76
2022/03/07 11:47:47;;;;;;;1.97;1.20;;;13.00;49.50;;;;;;5115034;28;20306;-75
2022/03/07 11:50:15;;;;;;;1.60;1.10;;;13.00;49.40;;;;;;5106610;28;20172;-75
2022/03/07 11:52:41;;;;;;;2.40;1.23;;;12.90;49.30;;;;;;5095415;28;20187;-75
2022/03/07 11:55:13;;;;;;;3.17;1.00;;;12.90;49.30;;;;;;5095391;28;20276;-75
2022/03/07 11:57:42;;;;;;;1.80;1.10;;;12.90;49.30;;;;;;5094639;28;20185;-75
2022/03/07 12:00:19;;;;;;;3.10;1.00;;;12.90;49.30;;;;;;5094965;28;20205;-75
2022/03/07 12:02:57;;;;;;;2.63;0.90;;;12.90;49.30;;;;;;5094305;28;20183;-75
2022/03/07 12:05:32;;;;;;;2.07;0.97;;;12.90;49.20;;;;;;5095224;28;20182;-75
2022/03/07 12:08:10;;;;;;;2.57;1.10;;;12.90;49.20;;;;;;5094429;28;20182;-75
2022/03/07 12:10:50;;;;;;;3.53;1.07;;;12.80;49.10;;;;;;5094008;28;20185;-76
2022/03/07 12:13:16;;;;;;;1.63;1.00;;;12.80;49.00;;;;;;5094164;28;20214;-75
2022/03/07 12:15:49;;;;;;;1.03;0.90;;;12.80;48.90;;;;;;5093511;28;20214;-75
2022/03/07 12:18:16;;;;;;;1.93;1.30;;;12.80;49.00;;;;;;5094077;28;20182;-75
2022/03/07 12:20:56;;;;;;;1.00;0.90;;;12.80;49.00;;;;;;5093962;28;20181;-75
2022/03/07 12:23:26;;;;;;;1.07;0.97;;;12.80;49.00;;;;;;5094777;28;20561;-75
2022/03/07 12:26:08;;;;;;;2.03;1.10;;;12.70;49.30;;;;;;5093719;28;20834;-76
2022/03/07 12:28:41;;;;;;;1.30;1.10;;;12.80;48.90;;;;;;5092469;28;20469;-75
2022/03/07 12:31:07;;;;;;;2.20;1.10;;;12.70;48.80;;;;;;5092114;28;20203;-75
2022/03/07 12:33:34;;;;;;;2.40;1.00;;;12.70;48.80;;;;;;5092531;28;20822;-75
2022/03/07 12:36:12;;;;;;;1.27;0.97;;;12.70;48.80;;;;;;5092257;28;20175;-75
2022/03/07 12:38:56;;;;;;;1.93;0.90;;;12.70;48.80;;;;;;5093511;28;20177;-75
2022/03/07 12:41:34;;;;;;;2.13;1.07;;;12.70;48.80;;;;;;5093576;28;20548;-75
2022/03/07 12:44:00;;;;;;;2.80;1.00;;;12.70;48.80;;;;;;5093778;28;20190;-75
2022/03/07 12:46:27;;;;;;;1.87;1.10;;;12.80;48.90;;;;;;5094738;28;20203;-75
2022/03/07 12:48:55;;;;;;;2.60;1.03;;;12.70;48.80;;;;;;5095330;28;20171;-75
2022/03/07 12:51:22;;;;;;;2.13;1.13;;;12.70;48.80;;;;;;5092906;28;20209;-75